IK5NLA Vaiano IT current weather conditions

sailwx.info

Wind from 294 at 2 knots gusting 2

Air temperature 17.8° C
Dewpoint 16.3° C

Last reported at 2014-Jul-29 15:46 UTC.
Time now 2014-Jul-29 16:56 UTC

Location: N 43°58' E 011°06'.
View on Google Maps.

See reports from other nearby stations

  
Tides and Currents Weather Stations Pressure Air Temp Water Temp Dewpoint Dewpoint Depression Visibility Wind Speed Wind Dir Waves Ship Positions
date/time (UTC)wind fromknots sea level pressurealtimeterstation pressurevisibilityair tempwater tempwave heightnotes
2014-Jul-29 15:46 294 2 gusting 2 17.8
2014-Jul-29 15:36 249 5 gusting 5 18.3
2014-Jul-29 15:26 067 0 gusting 0 18.3
2014-Jul-29 15:16 079 2 gusting 3 18.3
2014-Jul-29 15:06 229 2 gusting 2 18.3
2014-Jul-29 14:56 194 2 gusting 2 18.3
2014-Jul-29 14:46 179 2 gusting 2 18.3
2014-Jul-29 14:36 134 2 gusting 3 18.3
2014-Jul-29 14:26 106 2 gusting 4 18.3
2014-Jul-29 14:16 068 0 gusting 0 18.3
2014-Jul-29 14:06 199 1 gusting 1 18.3
2014-Jul-29 13:56 184 0 gusting 1 18.3
2014-Jul-29 13:36 135 3 gusting 3 18.3
2014-Jul-29 13:26 198 2 gusting 2 18.3
2014-Jul-29 13:16 305 6 gusting 6 17.8
2014-Jul-29 12:46 261 0 gusting 0 17.8
2014-Jul-29 12:36 248 4 gusting 4 17.8
2014-Jul-29 12:16 284 2 gusting 2 18.3
2014-Jul-29 12:06 267 2 gusting 3 17.8
2014-Jul-29 11:46 250 4 gusting 4 17.8
2014-Jul-29 11:36 294 5 gusting 5 17.8
2014-Jul-29 11:06 310 12 gusting 12 17.8
2014-Jul-29 10:56 296 6 gusting 7 18.3
2014-Jul-29 10:46 317 3 gusting 3 19.4
2014-Jul-29 10:36 198 5 gusting 5 19.4
2014-Jul-29 10:26 238 5 gusting 7 20.0
2014-Jul-29 10:16 232 2 gusting 3 20.0
2014-Jul-29 10:06 213 4 gusting 6 20.0
2014-Jul-29 09:56 210 5 gusting 6 19.4
2014-Jul-29 09:46 213 4 gusting 4 19.4
2014-Jul-29 09:36 221 2 gusting 6 19.4
2014-Jul-29 09:26 231 4 gusting 5 18.9
2014-Jul-29 09:16 222 1 gusting 2 18.9
2014-Jul-29 09:06 169 3 gusting 4 18.3
2014-Jul-29 08:46 249 4 gusting 5 18.3
2014-Jul-29 08:36 233 2 gusting 5 18.3
2014-Jul-29 08:26 271 14 gusting 14 18.3
2014-Jul-29 08:06 218 4 gusting 5 17.8
2014-Jul-29 07:46 270 6 gusting 6 17.8
2014-Jul-29 07:36 248 3 gusting 3 17.8
2014-Jul-29 07:26 242 6 gusting 8 17.8
2014-Jul-29 07:16 255 3 gusting 6 17.8
2014-Jul-29 07:06 214 11 gusting 11 17.8
2014-Jul-29 06:56 198 13 gusting 14 17.8
2014-Jul-29 06:46 267 6 gusting 6 17.8
2014-Jul-29 06:36 198 8 gusting 8 17.8
2014-Jul-29 06:26 209 6 gusting 6 17.2
2014-Jul-29 06:16 259 3 gusting 3 17.2
2014-Jul-29 06:06 232 5 gusting 8 17.2
2014-Jul-29 05:56 180 1 gusting 3 17.2
2014-Jul-29 05:46 233 2 gusting 3 17.2
2014-Jul-29 05:36 211 4 gusting 4 17.2
2014-Jul-29 05:26 190 3 gusting 3 17.2
2014-Jul-29 05:16 219 2 gusting 3 17.2
2014-Jul-29 05:06 214 1 gusting 1 17.2
2014-Jul-29 04:46 215 1 gusting 4 17.8
2014-Jul-29 04:26 202 6 gusting 6 17.8
2014-Jul-29 04:16 207 4 gusting 5 17.8
2014-Jul-29 04:06 217 3 gusting 6 18.3
2014-Jul-29 03:56 225 2 gusting 3 18.3
2014-Jul-29 03:46 175 3 gusting 3 18.3
2014-Jul-29 03:36 210 6 gusting 6 18.3
2014-Jul-29 03:26 209 8 gusting 11 18.3
2014-Jul-29 03:16 205 8 gusting 8 18.3
2014-Jul-29 03:06 191 3 gusting 6 18.3
2014-Jul-29 02:56 198 3 gusting 3 18.3
2014-Jul-29 02:46 209 10 gusting 10 18.3
2014-Jul-29 02:36 179 2 gusting 2 18.3
2014-Jul-29 02:26 210 5 gusting 7 18.3
2014-Jul-29 02:16 190 3 gusting 5 18.3
2014-Jul-29 02:06 201 2 gusting 2 18.3
2014-Jul-29 01:56 229 10 gusting 11 18.3
2014-Jul-29 01:46 202 8 gusting 8 18.3
2014-Jul-29 01:36 228 10 gusting 10 18.3
2014-Jul-29 01:26 209 15 gusting 16 18.3
2014-Jul-29 01:16 206 11 gusting 11 18.9
2014-Jul-29 01:06 225 6 gusting 7 18.9
2014-Jul-29 00:56 277 3 gusting 3 18.9
2014-Jul-29 00:46 189 6 gusting 8 18.9
2014-Jul-29 00:36 230 8 gusting 8 18.9
2014-Jul-29 00:26 205 2 gusting 4 18.9
2014-Jul-29 00:16 196 11 gusting 12 18.9
2014-Jul-29 00:06 207 8 gusting 8 18.9
2014-Jul-28 23:56 170 10 gusting 11 18.9
2014-Jul-28 23:46 234 7 gusting 9 18.9
2014-Jul-28 23:36 194 5 gusting 6 18.9
2014-Jul-28 23:26 176 2 gusting 2 19.4
2014-Jul-28 23:16 281 3 gusting 6 19.4
2014-Jul-28 23:06 241 2 gusting 2 19.4
2014-Jul-28 22:56 269 0 gusting 1 19.4
2014-Jul-28 22:46 222 8 gusting 9 18.9
2014-Jul-28 22:36 229 1 gusting 1 18.9
2014-Jul-28 22:26 326 3 gusting 3 18.9
2014-Jul-28 22:16 195 6 gusting 6 18.9
2014-Jul-28 22:06 213 6 gusting 8 18.9
2014-Jul-28 21:56 207 3 gusting 6 18.9
2014-Jul-28 21:46 207 8 gusting 13 18.9
2014-Jul-28 21:36 187 8 gusting 8 19.4
2014-Jul-28 21:26 193 8 gusting 9 19.4
2014-Jul-28 21:16 173 1 gusting 2 19.4
2014-Jul-28 21:06 198 6 gusting 6 19.4
2014-Jul-28 20:56 187 8 gusting 9 19.4
2014-Jul-28 20:46 193 5 gusting 5 20.0
2014-Jul-28 20:36 188 2 gusting 6 20.0
2014-Jul-28 20:26 259 2 gusting 6 20.0
2014-Jul-28 20:16 275 3 gusting 5 20.0
2014-Jul-28 20:06 305 2 gusting 2 20.0
2014-Jul-28 19:56 128 4 gusting 4 20.0
2014-Jul-28 19:46 211 14 gusting 14 20.0
2014-Jul-28 19:36 178 6 gusting 6 20.0
2014-Jul-28 19:26 167 4 gusting 4 20.0
2014-Jul-28 19:16 180 4 gusting 4 20.6
2014-Jul-28 19:06 161 4 gusting 4 20.6
2014-Jul-28 18:56 153 2 gusting 3 20.6
2014-Jul-28 18:46 360 0 gusting 0 20.6
2014-Jul-28 18:36 355 0 gusting 0 21.1
2014-Jul-28 18:26 107 21.1
2014-Jul-28 18:16 124 3 gusting 3 21.1
2014-Jul-28 18:06 173 2 gusting 3 21.7
2014-Jul-28 17:56 200 1 gusting 1 21.7
2014-Jul-28 17:46 160 1 gusting 1 21.7
2014-Jul-28 17:36 176 22.2
2014-Jul-28 17:26 188 8 gusting 8 22.2
2014-Jul-28 17:16 273 2 gusting 2 22.2
2014-Jul-28 17:06 286 2 gusting 2 22.8
2014-Jul-28 16:56 218 8 gusting 8 22.8
2014-Jul-28 16:46 213 7 gusting 7 23.3
2014-Jul-28 16:36 211 7 gusting 7 23.3
2014-Jul-28 16:26 229 3 gusting 4 23.9
2014-Jul-28 16:16 202 8 gusting 9 23.9
2014-Jul-28 16:06 207 6 gusting 6 24.4
2014-Jul-28 15:56 277 6 gusting 10 24.4
2014-Jul-28 15:46 249 2 gusting 2 24.4
2014-Jul-28 15:36 214 6 gusting 6 24.4
2014-Jul-28 15:26 284 3 gusting 5 24.4
2014-Jul-28 15:16 253 11 gusting 12 24.4
2014-Jul-28 15:06 257 8 gusting 8 24.4
2014-Jul-28 14:56 224 6 gusting 7 24.4
2014-Jul-28 14:46 259 9 gusting 9 24.4
2014-Jul-28 14:36 284 6 gusting 6 24.4
2014-Jul-28 14:26 273 7 gusting 8 25.0
2014-Jul-28 14:16 254 7 gusting 7 25.0
2014-Jul-28 14:06 243 6 gusting 6 24.4
2014-Jul-28 13:56 237 3 gusting 4 23.9
2014-Jul-28 13:46 186 2 gusting 2 23.9
2014-Jul-28 13:36 221 8 gusting 8 23.9
2014-Jul-28 13:26 223 10 gusting 10 24.4
2014-Jul-28 13:16 238 10 gusting 12 24.4
2014-Jul-28 13:06 294 2 gusting 2 24.4
2014-Jul-28 12:56 270 6 gusting 6 24.4
2014-Jul-28 12:46 246 5 gusting 5 24.4
2014-Jul-28 12:36 240 9 gusting 9 24.4
2014-Jul-28 12:26 231 3 gusting 3 23.9
2014-Jul-28 12:16 213 6 gusting 6 23.9
2014-Jul-28 12:06 193 3 gusting 5 23.9
2014-Jul-28 11:57 263 6 gusting 6 24.4
2014-Jul-28 11:46 181 3 gusting 3 23.3
2014-Jul-28 11:36 222 8 gusting 8 23.9
2014-Jul-28 11:26 201 10 gusting 10 23.3
2014-Jul-28 11:16 224 4 gusting 7 23.3
2014-Jul-28 11:06 265 5 gusting 5 23.3
2014-Jul-28 10:56 233 5 gusting 6 23.3
2014-Jul-28 10:46 175 6 gusting 6 23.3
2014-Jul-28 10:36 194 6 gusting 6 23.3
2014-Jul-28 10:26 200 8 gusting 9 23.3
2014-Jul-28 10:16 212 2 gusting 2 22.8
2014-Jul-28 10:06 244 3 gusting 4 22.2
2014-Jul-28 09:56 217 6 gusting 6 22.8
2014-Jul-28 09:46 260 5 gusting 5 22.8
2014-Jul-28 09:36 221 6 gusting 6 22.2
2014-Jul-28 09:26 272 4 gusting 5 21.7
2014-Jul-28 09:16 244 5 gusting 5 21.7
2014-Jul-28 09:06 198 8 gusting 8 21.7
2014-Jul-28 08:56 236 8 gusting 8 21.1
2014-Jul-28 08:46 209 4 gusting 7 21.1
2014-Jul-28 08:36 232 8 gusting 8 21.7
2014-Jul-28 08:26 249 6 gusting 8 22.2
2014-Jul-28 08:16 244 6 gusting 6 21.7
2014-Jul-28 08:06 115 3 gusting 3 22.2
2014-Jul-28 07:56 071 4 gusting 4 21.1
2014-Jul-28 07:46 155 0 gusting 1 21.1
2014-Jul-28 07:36 172 0 gusting 0 21.1
2014-Jul-28 07:26 173 1 gusting 1 21.1
2014-Jul-28 07:16 138 1 gusting 2 21.1
2014-Jul-28 07:06 155 21.1
2014-Jul-28 06:56 164 0 gusting 0 21.1
2014-Jul-28 06:46 111 1 gusting 1 21.1
2014-Jul-28 06:36 100 1 gusting 1 20.0
2014-Jul-28 06:26 115 2 gusting 2 20.0
2014-Jul-28 06:16 108 2 gusting 2 20.0
2014-Jul-28 06:06 125 3 gusting 3 20.0
2014-Jul-28 05:56 121 0 gusting 1 20.0
2014-Jul-28 05:46 121 0 gusting 0 20.6
2014-Jul-28 05:36 121 0 gusting 0 20.0
2014-Jul-28 05:26 026 0 gusting 1 20.6
2014-Jul-28 05:16 342 19.4
2014-Jul-28 05:06 342 18.9
2014-Jul-28 04:56 342 18.9
2014-Jul-28 04:46 341 0 gusting 0 18.3
2014-Jul-28 04:36 341 1 gusting 1 18.3
2014-Jul-28 04:26 342 1 gusting 2 18.3
2014-Jul-28 04:16 342 1 gusting 1 18.3
2014-Jul-28 04:06 342 1 gusting 1 18.3
2014-Jul-28 03:56 341 1 gusting 1 18.3
2014-Jul-28 03:46 342 1 gusting 1 18.3
2014-Jul-28 03:36 341 1 gusting 1 17.8
2014-Jul-28 03:26 342 1 gusting 2 17.8
2014-Jul-28 03:16 341 2 gusting 2 17.8
2014-Jul-28 03:06 336 3 gusting 3 18.3
2014-Jul-28 02:56 336 2 gusting 2 18.3
2014-Jul-28 02:46 336 0 gusting 0 18.3
2014-Jul-28 02:36 336 2 gusting 3 18.3
2014-Jul-28 02:26 336 2 gusting 2 18.3
2014-Jul-28 02:16 336 2 gusting 2 18.3
2014-Jul-28 02:06 339 2 gusting 3 18.3
2014-Jul-28 01:56 345 0 gusting 0 18.3
2014-Jul-28 01:46 334 3 gusting 3 18.3
2014-Jul-28 01:36 346 1 gusting 2 18.3
2014-Jul-28 01:26 346 3 gusting 3 18.3
2014-Jul-28 01:16 327 4 gusting 4 18.9
2014-Jul-28 01:06 343 2 gusting 2 18.3
2014-Jul-28 00:56 343 3 gusting 3 18.9
2014-Jul-28 00:46 331 3 gusting 3 18.3
2014-Jul-28 00:36 334 3 gusting 4 18.3
2014-Jul-28 00:26 329 3 gusting 3 18.9
2014-Jul-28 00:16 326 3 gusting 3 18.9
2014-Jul-28 00:06 321 2 gusting 3 18.9
2014-Jul-27 23:56 338 2 gusting 4 18.3
2014-Jul-27 23:46 346 2 gusting 3 18.9
2014-Jul-27 23:36 337 2 gusting 3 19.4
2014-Jul-27 23:26 338 1 gusting 2 19.4
2014-Jul-27 23:16 338 1 gusting 2 19.4
2014-Jul-27 23:06 333 3 gusting 3 18.9
2014-Jul-27 22:56 336 1 gusting 1 19.4
2014-Jul-27 22:46 331 1 gusting 2 19.4
2014-Jul-27 22:36 317 3 gusting 3 19.4
2014-Jul-27 22:26 332 3 gusting 3 19.4
2014-Jul-27 22:16 340 1 gusting 1 19.4
2014-Jul-27 22:06 340 1 gusting 1 19.4
2014-Jul-27 21:56 340 2 gusting 3 19.4
2014-Jul-27 21:46 346 3 gusting 3 19.4
2014-Jul-27 21:36 023 2 gusting 2 19.4
2014-Jul-27 21:26 009 2 gusting 2 20.0
2014-Jul-27 21:16 322 1 gusting 1 20.0
2014-Jul-27 21:06 318 1 gusting 2 20.0
2014-Jul-27 20:56 026 1 gusting 2 20.0
2014-Jul-27 20:46 028 20.0
2014-Jul-27 20:36 082 1 gusting 1 20.6
2014-Jul-27 20:26 055 3 gusting 3 20.6
2014-Jul-27 20:16 011 4 gusting 4 20.6
2014-Jul-27 20:06 033 0 gusting 2 20.6
2014-Jul-27 19:56 055 2 gusting 3 20.6
2014-Jul-27 19:46 044 4 gusting 4 20.6
2014-Jul-27 19:36 045 2 gusting 3 20.6
2014-Jul-27 19:26 046 2 gusting 3 20.6
2014-Jul-27 19:16 046 4 gusting 4 20.6
2014-Jul-27 19:06 081 4 gusting 5 21.1
2014-Jul-27 18:56 066 2 gusting 3 21.1
2014-Jul-27 18:46 062 1 gusting 2 21.1
2014-Jul-27 18:36 038 1 gusting 1 21.1
2014-Jul-27 18:26 021 4 gusting 4 21.1
2014-Jul-27 18:16 080 4 gusting 4 21.1
2014-Jul-27 18:06 058 3 gusting 4 21.7
2014-Jul-27 17:56 078 4 gusting 4 21.7
2014-Jul-27 17:46 045 5 gusting 5 21.7
2014-Jul-27 17:36 060 3 gusting 5 21.7
2014-Jul-27 17:26 065 2 gusting 2 22.2
2014-Jul-27 17:16 027 0 gusting 1 22.2
2014-Jul-27 17:06 076 1 gusting 2 22.8
2014-Jul-27 16:56 028 22.8
2014-Jul-27 16:46 117 2 gusting 2 23.3
2014-Jul-27 16:36 032 4 gusting 5 23.9
2014-Jul-27 16:26 098 0 gusting 1 23.9
2014-Jul-27 16:16 092 2 gusting 3 23.3
2014-Jul-27 16:06 090 0 gusting 1 23.3